createdAt,value
2019-03-24T00:00:53.599Z,10.60
2019-03-24T00:03:23.952Z,10.78
2019-03-24T00:05:54.169Z,11.70
2019-03-24T00:08:24.382Z,11.08
2019-03-24T00:10:54.551Z,11.75
2019-03-24T00:13:25.001Z,10.88
2019-03-24T00:15:55.382Z,11.55
2019-03-24T00:18:25.583Z,11.95
2019-03-24T00:20:55.861Z,11.43
2019-03-24T00:23:26.033Z,11.43
2019-03-24T00:25:56.185Z,11.12
2019-03-24T00:28:28.070Z,11.83
2019-03-24T00:30:58.604Z,12.07
2019-03-24T00:33:28.726Z,11.30
2019-03-24T00:35:59.055Z,10.90
2019-03-24T00:38:29.688Z,12.15
2019-03-24T00:40:59.835Z,11.48
2019-03-24T00:43:37.916Z,12.28
2019-03-24T00:46:10.047Z,11.38
2019-03-24T00:48:40.003Z,11.35
2019-03-24T00:51:32.744Z,11.78
2019-03-24T00:54:02.834Z,11.63
2019-03-24T00:56:34.626Z,12.85
2019-03-24T00:59:25.496Z,13.10
2019-03-24T01:01:56.057Z,14.20
2019-03-24T01:04:26.122Z,13.62
2019-03-24T01:09:45.425Z,13.22
2019-03-24T01:12:15.991Z,13.35
2019-03-24T01:14:46.197Z,13.98
2019-03-24T01:17:16.426Z,14.60
2019-03-24T01:19:48.461Z,15.63
2019-03-24T01:22:18.607Z,16.42
2019-03-24T01:24:48.856Z,15.18
2019-03-24T01:27:18.983Z,15.50
2019-03-24T01:29:50.535Z,16.93
2019-03-24T01:32:23.312Z,14.90
2019-03-24T01:34:54.055Z,16.32
2019-03-24T01:37:24.185Z,16.27
2019-03-24T01:39:54.712Z,16.42
2019-03-24T01:42:26.105Z,17.90
2019-03-24T01:44:56.466Z,18.07
2019-03-24T01:47:28.811Z,17.12
2019-03-24T01:49:59.003Z,15.45
2019-03-24T01:52:29.194Z,17.37
2019-03-24T01:54:59.414Z,16.95
2019-03-24T01:57:30.077Z,17.35
2019-03-24T02:00:00.338Z,17.07
2019-03-24T02:02:30.554Z,18.45
2019-03-24T02:05:02.552Z,19.60
2019-03-24T02:07:33.843Z,19.15
2019-03-24T02:10:06.834Z,18.90
2019-03-24T02:12:36.983Z,19.23
2019-03-24T02:15:10.936Z,17.70
2019-03-24T02:17:41.297Z,18.82
2019-03-24T02:20:11.723Z,17.85
2019-03-24T02:22:43.870Z,19.12
2019-03-24T02:25:14.220Z,17.62
2019-03-24T02:27:44.519Z,17.12
2019-03-24T02:30:14.869Z,17.87
2019-03-24T02:32:45.409Z,16.02
2019-03-24T02:35:15.587Z,17.67
2019-03-24T02:37:45.654Z,17.98
2019-03-24T02:40:15.773Z,17.35
2019-03-24T02:42:45.905Z,17.70
2019-03-24T02:45:16.228Z,17.90
2019-03-24T02:47:48.008Z,18.00
2019-03-24T02:50:18.422Z,18.40
2019-03-24T02:52:50.189Z,18.30
2019-03-24T02:55:21.381Z,16.93
2019-03-24T02:57:52.681Z,17.92
2019-03-24T03:00:22.969Z,18.77
2019-03-24T03:02:53.112Z,18.32
2019-03-24T03:05:24.891Z,17.85
2019-03-24T03:07:54.967Z,17.35
2019-03-24T03:10:25.172Z,17.60
2019-03-24T03:12:55.320Z,17.30
2019-03-24T03:15:25.584Z,18.25
2019-03-24T03:17:55.670Z,17.62
2019-03-24T03:20:25.819Z,17.17
2019-03-24T03:22:55.895Z,17.17
2019-03-24T03:25:27.150Z,18.15
2019-03-24T03:27:57.182Z,17.30
2019-03-24T03:30:27.455Z,17.25
2019-03-24T03:32:57.998Z,17.70
2019-03-24T03:35:30.040Z,17.35
2019-03-24T03:38:00.290Z,17.02
2019-03-24T03:40:30.371Z,17.00
2019-03-24T03:43:00.434Z,16.60
2019-03-24T03:45:31.029Z,17.15
2019-03-24T03:48:01.082Z,17.35
2019-03-24T03:50:34.239Z,16.05
2019-03-24T03:53:06.947Z,17.20
2019-03-24T03:55:37.076Z,17.98
2019-03-24T03:58:07.397Z,17.82
2019-03-24T04:00:37.835Z,16.62
2019-03-24T04:03:08.376Z,17.02
2019-03-24T04:05:38.520Z,15.88
2019-03-24T04:08:08.609Z,16.65
2019-03-24T04:13:28.296Z,16.50
2019-03-24T04:16:00.031Z,16.15
2019-03-24T04:18:30.265Z,16.12
2019-03-24T04:21:00.404Z,16.73
2019-03-24T04:23:30.495Z,15.95
2019-03-24T04:26:00.723Z,15.72
2019-03-24T04:28:32.515Z,15.83
2019-03-24T04:31:04.249Z,16.48
2019-03-24T04:33:34.265Z,15.60
2019-03-24T04:36:06.002Z,15.98
2019-03-24T04:38:36.163Z,16.07
2019-03-24T04:41:06.484Z,15.63
2019-03-24T04:43:36.553Z,15.15
2019-03-24T04:46:06.682Z,15.18
2019-03-24T04:48:38.717Z,15.18
2019-03-24T04:51:09.249Z,15.43
2019-03-24T04:53:40.947Z,15.50
2019-03-24T04:56:11.032Z,14.90
2019-03-24T04:58:41.254Z,14.55
2019-03-24T05:01:11.462Z,15.70
2019-03-24T05:03:41.676Z,14.70
2019-03-24T05:06:12.967Z,15.70
2019-03-24T05:08:45.122Z,15.23
2019-03-24T05:11:16.866Z,15.40
2019-03-24T05:13:47.042Z,14.33
2019-03-24T05:16:17.202Z,14.60
2019-03-24T05:18:47.252Z,14.85
2019-03-24T05:21:19.321Z,15.18
2019-03-24T05:23:49.324Z,14.38
2019-03-24T05:26:21.001Z,15.10
2019-03-24T05:28:51.094Z,15.23
2019-03-24T05:31:21.550Z,15.20
2019-03-24T05:33:51.855Z,15.35
2019-03-24T05:36:22.516Z,14.18
2019-03-24T05:38:52.737Z,15.25
2019-03-24T05:41:22.965Z,15.53
2019-03-24T05:43:53.188Z,15.32
2019-03-24T05:46:23.324Z,14.70
2019-03-24T05:48:53.424Z,14.58
2019-03-24T05:51:23.897Z,16.05
2019-03-24T05:53:54.090Z,16.37
2019-03-24T05:56:24.186Z,16.73
2019-03-24T05:58:54.341Z,15.98
2019-03-24T06:01:24.562Z,17.87
2019-03-24T06:03:54.549Z,15.38
2019-03-24T06:06:24.685Z,15.78
2019-03-24T06:08:54.899Z,15.58
2019-03-24T06:11:25.052Z,16.27
2019-03-24T06:13:55.159Z,18.37
2019-03-24T06:16:25.407Z,17.17
2019-03-24T06:18:55.418Z,17.40
2019-03-24T06:21:25.549Z,19.23
2019-03-24T06:23:57.231Z,20.72
2019-03-24T06:26:27.413Z,19.17
2019-03-24T06:28:57.685Z,17.87
2019-03-24T06:31:27.856Z,17.75
2019-03-24T06:33:57.977Z,16.75
2019-03-24T06:36:29.766Z,18.00
2019-03-24T06:38:59.965Z,18.25
2019-03-24T06:41:32.968Z,16.97
2019-03-24T06:44:05.653Z,17.23
2019-03-24T06:46:37.292Z,15.88
2019-03-24T06:49:12.303Z,16.65
2019-03-24T06:51:46.258Z,15.85
2019-03-24T06:54:16.386Z,15.23
2019-03-24T06:56:48.552Z,16.40
2019-03-24T06:59:18.779Z,17.82
2019-03-24T07:01:56.837Z,17.12
2019-03-24T07:04:26.983Z,18.12
2019-03-24T07:10:30.906Z,21.12
2019-03-24T07:18:58.101Z,17.80
2019-03-24T07:21:32.392Z,15.90
2019-03-24T07:24:08.172Z,12.75
2019-03-24T07:26:41.256Z,14.23
2019-03-24T07:29:21.097Z,13.22
2019-03-24T07:31:52.907Z,13.75
2019-03-24T07:34:24.983Z,12.30
2019-03-24T07:36:57.070Z,12.68
2019-03-24T07:42:17.179Z,14.23
2019-03-24T07:44:47.394Z,13.83
2019-03-24T07:47:17.540Z,15.58
2019-03-24T07:49:47.723Z,16.15
2019-03-24T07:52:18.005Z,17.60
2019-03-24T07:54:48.112Z,16.70
2019-03-24T07:57:21.459Z,16.30
2019-03-24T07:59:54.383Z,15.30
2019-03-24T08:02:26.051Z,13.83
2019-03-24T08:04:56.559Z,16.07
2019-03-24T08:07:29.965Z,12.15
2019-03-24T08:12:41.762Z,12.28
2019-03-24T08:15:12.320Z,12.58
2019-03-24T08:17:42.632Z,12.03
2019-03-24T08:20:12.894Z,12.05
2019-03-24T08:22:43.148Z,12.55
2019-03-24T08:25:13.827Z,13.08
2019-03-24T08:27:46.245Z,13.03
2019-03-24T08:30:19.376Z,31.27
2019-03-24T08:32:49.574Z,19.27
2019-03-24T08:35:19.581Z,16.35
2019-03-24T08:37:49.755Z,27.85
2019-03-24T08:40:26.225Z,16.52
2019-03-24T08:43:00.216Z,16.85
2019-03-24T08:45:31.043Z,17.42
2019-03-24T08:48:02.734Z,18.62
2019-03-24T08:50:37.740Z,73.47
2019-03-24T08:53:10.115Z,20.43
2019-03-24T08:55:41.802Z,21.57
2019-03-24T08:58:16.334Z,20.85
2019-03-24T09:00:49.309Z,20.32
2019-03-24T09:03:23.382Z,23.40
2019-03-24T09:05:57.967Z,21.65
2019-03-24T09:08:51.875Z,21.57
2019-03-24T09:11:31.467Z,21.60
2019-03-24T09:14:04.025Z,21.25
2019-03-24T09:19:03.399Z,20.62
2019-03-24T09:21:39.523Z,20.65
2019-03-24T09:24:14.248Z,21.25
2019-03-24T09:26:46.008Z,20.55
2019-03-24T09:29:16.233Z,20.37
2019-03-24T09:31:46.401Z,21.48
2019-03-24T09:34:16.581Z,19.95
2019-03-24T09:36:47.005Z,21.48
2019-03-24T09:39:17.159Z,21.75
2019-03-24T09:41:47.463Z,21.27
2019-03-24T09:44:17.698Z,22.80
2019-03-24T09:46:49.655Z,21.20
2019-03-24T09:49:19.794Z,22.62
2019-03-24T09:51:49.978Z,24.90
2019-03-24T09:54:20.201Z,24.10
2019-03-24T09:56:50.329Z,23.70
2019-03-24T09:59:20.778Z,24.18
2019-03-24T10:01:57.613Z,24.87
2019-03-24T10:04:28.085Z,24.55
2019-03-24T10:06:59.541Z,26.37
2019-03-24T10:09:31.166Z,26.90
2019-03-24T10:12:01.247Z,29.32
2019-03-24T10:14:32.010Z,29.30
2019-03-24T10:17:02.090Z,24.90
2019-03-24T10:19:32.303Z,26.07
2019-03-24T10:22:10.426Z,26.62
2019-03-24T10:24:40.634Z,24.90
2019-03-24T10:27:10.777Z,24.95
2019-03-24T10:29:40.981Z,24.60
2019-03-24T10:32:11.310Z,23.92
2019-03-24T10:34:42.860Z,24.50
2019-03-24T10:37:13.063Z,25.17
2019-03-24T10:39:43.191Z,23.35
2019-03-24T10:42:13.341Z,24.50
2019-03-24T10:44:45.178Z,23.60
2019-03-24T10:47:15.434Z,23.67
2019-03-24T10:49:46.162Z,20.60
2019-03-24T10:52:16.365Z,21.23
2019-03-24T10:54:46.439Z,21.02
2019-03-24T10:57:17.977Z,20.57
2019-03-24T10:59:48.268Z,19.77
2019-03-24T11:02:18.338Z,18.65
2019-03-24T11:04:48.554Z,18.32
2019-03-24T11:07:18.660Z,17.42
2019-03-24T11:09:48.792Z,15.98
2019-03-24T11:12:19.219Z,16.25
2019-03-24T11:14:49.439Z,15.23
2019-03-24T11:17:19.457Z,14.93
2019-03-24T11:19:51.173Z,14.15
2019-03-24T11:22:21.342Z,14.58
2019-03-24T11:24:51.873Z,13.62
2019-03-24T11:27:22.079Z,13.65
2019-03-24T11:29:52.377Z,13.30
2019-03-24T11:32:22.457Z,13.58
2019-03-24T11:34:55.744Z,12.25
2019-03-24T11:37:25.946Z,12.43
2019-03-24T11:39:57.580Z,13.35
2019-03-24T11:42:27.861Z,12.90
2019-03-24T11:44:58.090Z,12.20
2019-03-24T11:47:28.385Z,13.25
2019-03-24T11:49:58.586Z,10.78
2019-03-24T11:52:28.858Z,9.08
2019-03-24T11:55:00.493Z,7.17
2019-03-24T11:57:31.155Z,8.85
2019-03-24T12:00:03.995Z,8.45
2019-03-24T12:02:34.566Z,7.42
2019-03-24T12:05:07.534Z,8.23
2019-03-24T12:07:37.994Z,8.10
2019-03-24T12:10:10.873Z,7.60
2019-03-24T12:12:41.398Z,7.95
2019-03-24T12:15:12.028Z,7.30
2019-03-24T12:17:42.235Z,6.75
2019-03-24T12:20:12.843Z,7.25
2019-03-24T12:22:43.535Z,7.25
2019-03-24T12:25:14.139Z,7.40
2019-03-24T12:27:44.590Z,7.37
2019-03-24T12:30:16.328Z,7.55
2019-03-24T12:32:46.586Z,11.30
2019-03-24T12:35:18.298Z,11.15
2019-03-24T12:37:48.519Z,11.30
2019-03-24T12:40:19.062Z,12.73
2019-03-24T12:42:50.305Z,13.70
2019-03-24T12:45:20.388Z,12.45
2019-03-24T12:47:51.008Z,11.93
2019-03-24T12:50:30.987Z,13.28
2019-03-24T12:52:52.867Z,13.03
2019-03-24T12:55:23.086Z,12.45
2019-03-24T12:57:54.678Z,11.33
2019-03-24T13:00:36.055Z,11.53
2019-03-24T13:03:06.890Z,10.20
2019-03-24T13:05:37.229Z,11.95
2019-03-24T13:08:17.375Z,11.90
2019-03-24T13:10:49.027Z,13.50
2019-03-24T13:13:20.225Z,12.82
2019-03-24T13:15:50.429Z,14.07
2019-03-24T13:18:20.642Z,15.68
2019-03-24T13:20:50.733Z,15.45
2019-03-24T13:23:25.054Z,15.65
2019-03-24T13:25:55.189Z,19.37
2019-03-24T13:28:25.413Z,25.08
2019-03-24T13:30:57.018Z,26.10
2019-03-24T13:33:28.562Z,24.67
2019-03-24T13:36:06.122Z,25.10
2019-03-24T13:38:36.265Z,24.43
2019-03-24T13:41:06.330Z,23.47
2019-03-24T13:43:36.559Z,20.57
2019-03-24T13:46:09.557Z,18.67
2019-03-24T13:48:39.782Z,19.12
2019-03-24T13:51:12.852Z,18.37
2019-03-24T13:53:43.015Z,18.75
2019-03-24T13:56:14.543Z,17.77
2019-03-24T13:58:44.824Z,19.23
2019-03-24T14:01:15.686Z,16.57
2019-03-24T14:03:46.174Z,19.37
2019-03-24T14:06:16.498Z,18.15
2019-03-24T14:08:46.623Z,16.62
2019-03-24T14:11:16.768Z,18.07
2019-03-24T14:13:46.969Z,18.00
2019-03-24T14:16:18.638Z,17.48
2019-03-24T14:18:48.720Z,19.27
2019-03-24T14:21:18.832Z,20.92
2019-03-24T14:23:48.996Z,19.32
2019-03-24T14:26:19.427Z,18.67
2019-03-24T14:28:50.962Z,18.30
2019-03-24T14:31:21.073Z,17.80
2019-03-24T14:33:51.221Z,18.20
2019-03-24T14:36:23.011Z,17.85
2019-03-24T14:38:53.104Z,17.23
2019-03-24T14:41:23.226Z,16.52
2019-03-24T14:43:53.370Z,17.05
2019-03-24T14:46:25.200Z,17.02
2019-03-24T14:48:55.418Z,18.52
2019-03-24T14:51:27.202Z,15.88
2019-03-24T14:54:33.135Z,14.40
2019-03-24T14:57:03.218Z,12.80
2019-03-24T14:59:33.463Z,14.05
2019-03-24T15:02:05.446Z,12.82
2019-03-24T15:04:35.567Z,14.10
2019-03-24T15:07:05.707Z,14.20
2019-03-24T15:09:35.929Z,15.40
2019-03-24T15:12:08.788Z,15.55
2019-03-24T15:14:39.023Z,17.25
2019-03-24T15:17:13.257Z,17.80
2019-03-24T15:19:43.293Z,14.68
2019-03-24T15:22:13.505Z,19.90
2019-03-24T15:24:43.446Z,16.82
2019-03-24T15:27:13.647Z,15.85
2019-03-24T15:29:43.770Z,16.67
2019-03-24T15:32:13.995Z,18.17
2019-03-24T15:34:44.220Z,17.62
2019-03-24T15:37:14.392Z,29.30
2019-03-24T15:39:47.230Z,35.95
2019-03-24T15:45:10.066Z,14.93
2019-03-24T15:47:40.280Z,18.98
2019-03-24T15:50:13.720Z,16.30
2019-03-24T15:52:43.939Z,15.08
2019-03-24T15:55:23.809Z,18.15
2019-03-24T15:57:56.845Z,26.42
2019-03-24T16:00:30.044Z,21.42
2019-03-24T16:03:00.189Z,20.15
2019-03-24T16:05:37.149Z,17.00
2019-03-24T16:08:04.938Z,16.02
2019-03-24T16:10:37.416Z,15.80
2019-03-24T16:13:11.829Z,16.23
2019-03-24T16:15:42.037Z,14.95
2019-03-24T16:18:12.395Z,14.68
2019-03-24T16:20:42.453Z,14.65
2019-03-24T16:23:12.816Z,66.17
2019-03-24T16:25:43.373Z,20.65
2019-03-24T16:28:15.064Z,15.50
2019-03-24T16:30:45.226Z,14.68
2019-03-24T16:33:17.311Z,13.90
2019-03-24T16:35:47.146Z,13.88
2019-03-24T16:38:17.138Z,13.45
2019-03-24T16:40:47.771Z,13.70
2019-03-24T16:43:18.498Z,13.50
2019-03-24T16:45:49.066Z,14.90
2019-03-24T16:48:19.201Z,13.78
2019-03-24T16:50:54.634Z,13.55
2019-03-24T16:53:24.859Z,13.85
2019-03-24T16:55:55.158Z,13.60
2019-03-24T16:58:25.418Z,12.47
2019-03-24T17:00:56.563Z,13.43
2019-03-24T17:03:27.162Z,14.63
2019-03-24T17:05:57.306Z,14.87
2019-03-24T17:08:27.446Z,13.22
2019-03-24T17:10:59.171Z,13.40
2019-03-24T17:13:29.424Z,15.03
2019-03-24T17:15:59.518Z,13.88
2019-03-24T17:18:32.605Z,14.85
2019-03-24T17:21:05.625Z,16.73
2019-03-24T17:23:37.497Z,16.37
2019-03-24T17:26:09.224Z,15.83
2019-03-24T17:28:41.604Z,15.23
2019-03-24T17:31:13.487Z,16.67
2019-03-24T17:33:43.658Z,15.53
2019-03-24T17:36:13.755Z,15.58
2019-03-24T17:38:45.975Z,14.05
2019-03-24T17:41:16.189Z,14.83
2019-03-24T17:43:46.328Z,16.10
2019-03-24T17:46:16.782Z,15.00
2019-03-24T17:48:47.001Z,15.53
2019-03-24T17:51:17.150Z,18.02
2019-03-24T17:53:47.457Z,15.48
2019-03-24T17:56:17.656Z,16.73
2019-03-24T17:58:47.877Z,17.82
2019-03-24T18:01:18.095Z,18.37
2019-03-24T18:03:48.294Z,18.30
2019-03-24T18:06:18.482Z,17.52
2019-03-24T18:08:49.087Z,18.15
2019-03-24T18:11:19.228Z,17.48
2019-03-24T18:13:49.465Z,15.10
2019-03-24T18:16:19.626Z,17.80
2019-03-24T18:18:49.784Z,17.15
2019-03-24T18:21:19.911Z,18.05
2019-03-24T18:23:50.046Z,18.57
2019-03-24T18:26:21.826Z,19.02
2019-03-24T18:28:52.093Z,19.98
2019-03-24T18:31:22.343Z,19.37
2019-03-24T18:33:52.418Z,21.85
2019-03-24T18:36:22.613Z,20.48
2019-03-24T18:38:52.683Z,20.10
2019-03-24T18:41:22.903Z,21.23
2019-03-24T18:43:53.091Z,19.73
2019-03-24T18:46:23.297Z,19.42
2019-03-24T18:48:53.450Z,18.62
2019-03-24T18:51:23.563Z,18.15
2019-03-24T18:53:53.892Z,19.52
2019-03-24T18:56:24.026Z,18.20
2019-03-24T18:58:54.180Z,18.17
2019-03-24T19:01:24.306Z,19.23
2019-03-24T19:03:54.459Z,19.07
2019-03-24T19:06:24.611Z,20.50
2019-03-24T19:08:54.730Z,21.02
2019-03-24T19:11:25.265Z,20.95
2019-03-24T19:13:55.374Z,20.57
2019-03-24T19:16:27.081Z,21.50
2019-03-24T19:18:57.245Z,20.77
2019-03-24T19:21:30.638Z,21.60
2019-03-24T19:26:30.297Z,22.22
2019-03-24T19:29:05.946Z,21.97
2019-03-24T19:31:36.171Z,21.97
2019-03-24T19:34:09.469Z,22.42
2019-03-24T19:36:39.789Z,21.73
2019-03-24T19:39:10.023Z,22.93
2019-03-24T19:41:40.251Z,24.02
2019-03-24T19:44:10.321Z,24.82
2019-03-24T19:46:43.563Z,22.77
2019-03-24T19:49:13.658Z,24.40
2019-03-24T19:51:43.988Z,22.90
2019-03-24T19:54:17.498Z,24.10
2019-03-24T19:56:49.422Z,26.30
2019-03-24T19:59:19.602Z,25.27
2019-03-24T20:01:49.674Z,25.43
2019-03-24T20:04:19.927Z,24.65
2019-03-24T20:06:50.247Z,23.65
2019-03-24T20:09:21.403Z,25.08
2019-03-24T20:11:51.733Z,24.32
2019-03-24T20:14:24.063Z,25.95
2019-03-24T20:17:13.286Z,23.25
2019-03-24T20:19:43.294Z,26.37
2019-03-24T20:22:14.655Z,25.12
2019-03-24T20:24:45.084Z,25.27
2019-03-24T20:27:15.407Z,24.27
2019-03-24T20:29:45.645Z,22.70
2019-03-24T20:32:15.731Z,23.77
2019-03-24T20:34:46.371Z,23.60
2019-03-24T20:37:16.723Z,23.05
2019-03-24T20:39:47.229Z,22.48
2019-03-24T20:42:17.377Z,24.10
2019-03-24T20:44:47.437Z,22.58
2019-03-24T20:47:18.003Z,22.20
2019-03-24T20:49:49.180Z,21.95
2019-03-24T20:52:20.946Z,23.27
2019-03-24T20:54:51.170Z,22.22
2019-03-24T20:57:21.398Z,23.12
2019-03-24T20:59:52.201Z,23.02
2019-03-24T21:02:23.656Z,23.52
2019-03-24T21:04:53.910Z,23.62
2019-03-24T21:07:24.101Z,22.42
2019-03-24T21:09:54.360Z,24.00
2019-03-24T21:12:24.455Z,22.52
2019-03-24T21:14:54.662Z,22.20
2019-03-24T21:17:24.832Z,22.67
2019-03-24T21:19:54.922Z,22.90
2019-03-24T21:22:25.282Z,24.02
2019-03-24T21:24:57.467Z,23.32
2019-03-24T21:27:27.590Z,22.62
2019-03-24T21:29:57.765Z,23.05
2019-03-24T21:32:47.673Z,24.47
2019-03-24T21:35:17.815Z,23.50
2019-03-24T21:37:47.953Z,23.90
2019-03-24T21:40:18.145Z,24.50
2019-03-24T21:42:48.239Z,22.40
2019-03-24T21:45:18.392Z,23.65
2019-03-24T21:47:48.586Z,25.30
2019-03-24T21:50:20.556Z,24.87
2019-03-24T21:52:50.662Z,22.60
2019-03-24T21:55:21.002Z,24.37
2019-03-24T21:57:57.481Z,22.93
2019-03-24T22:00:34.814Z,25.23
2019-03-24T22:03:05.849Z,23.42
2019-03-24T22:05:36.062Z,23.52
2019-03-24T22:10:57.282Z,23.50
2019-03-24T22:13:27.814Z,24.67
2019-03-24T22:15:57.906Z,23.67
2019-03-24T22:18:28.042Z,25.35
2019-03-24T22:20:58.173Z,23.65
2019-03-24T22:23:28.381Z,23.67
2019-03-24T22:25:58.602Z,24.82
2019-03-24T22:28:30.059Z,24.23
2019-03-24T22:31:04.650Z,26.23
2019-03-24T22:33:34.894Z,25.92
2019-03-24T22:36:06.565Z,25.70
2019-03-24T22:38:36.718Z,26.77
2019-03-24T22:41:08.785Z,25.72
2019-03-24T22:43:45.734Z,25.85
2019-03-24T22:46:16.437Z,25.05
2019-03-24T22:48:46.677Z,26.05
2019-03-24T22:51:18.793Z,24.57
2019-03-24T22:53:48.972Z,26.27
2019-03-24T22:56:19.840Z,26.20
2019-03-24T22:58:50.043Z,26.23
2019-03-24T23:01:20.959Z,25.88
2019-03-24T23:03:51.249Z,26.95
2019-03-24T23:06:21.341Z,26.62
2019-03-24T23:08:55.795Z,27.32
2019-03-24T23:11:27.489Z,26.20
2019-03-24T23:16:48.164Z,24.75
2019-03-24T23:19:21.104Z,27.52
2019-03-24T23:42:23.136Z,25.50
2019-03-24T23:44:53.287Z,26.82
2019-03-24T23:47:23.411Z,26.12
2019-03-24T23:49:57.945Z,24.82
2019-03-24T23:52:28.028Z,25.77
2019-03-24T23:54:58.283Z,26.45
2019-03-24T23:57:28.423Z,26.20
2019-03-24T23:59:58.634Z,28.40
